Time;durP1;ratioP1;P1;durP2;ratioP2;P2;SDS_P1;SDS_P2;PMS_P1;PMS_P2;Temp;Humidity;BMP_temperature;BMP_pressure;BME280_temperature;BME280_humidity;BME280_pressure;Samples;Min_cycle;Max_cycle;Signal;HPM_P1;HPM_P2
2022/05/26 00:00:52;;;;;;;;;;;;;;;27.23;35.31;100893.25;5077989;28;816;-45
2022/05/26 00:03:17;;;;;;;;;;;;;;;27.14;35.79;100878.13;5077941;28;917;-44
2022/05/26 00:05:43;;;;;;;;;;;;;;;27.22;35.61;100856.47;5078055;28;809;-44
2022/05/26 00:08:08;;;;;;;;;;;;;;;27.25;35.62;100855.25;5078018;28;733;-44
2022/05/26 00:10:34;;;;;;;;;;;;;;;27.13;36.08;100852.13;5077233;28;1968;-48
2022/05/26 00:13:00;;;;;;;;;;;;;;;27.24;36.04;100849.00;5078054;28;841;-54
2022/05/26 00:15:25;;;;;;;;;;;;;;;27.28;36.10;100854.88;5077613;28;926;-43
2022/05/26 00:17:50;;;;;;;;;;;;;;;27.14;36.33;100849.25;5059107;28;873;-44
2022/05/26 00:20:16;;;;;;;;;;;;;;;27.26;36.05;100844.25;5078023;28;846;-44
2022/05/26 00:22:41;;;;;;;;;;;;;;;27.24;36.02;100840.09;5077870;28;925;-45
2022/05/26 00:25:06;;;;;;;;;;;;;;;27.25;36.10;100837.19;5077126;28;1153;-45
2022/05/26 00:27:32;;;;;;;;;;;;;;;27.35;35.94;100828.84;5077380;28;1080;-45
2022/05/26 00:29:57;;;;;;;;;;;;;;;27.26;36.10;100838.88;5076905;28;1906;-45
2022/05/26 00:32:22;;;;;;;;;;;;;;;27.26;36.01;100836.16;5076961;28;888;-45
2022/05/26 00:34:48;;;;;;;;;;;;;;;27.22;35.83;100837.56;5077677;28;904;-43
2022/05/26 00:37:13;;;;;;;;;;;;;;;27.28;36.02;100837.88;5076463;28;966;-44
2022/05/26 00:39:38;;;;;;;;;;;;;;;27.26;35.95;100829.91;5077102;28;1583;-44
2022/05/26 00:42:04;;;;;;;;;;;;;;;27.28;35.77;100827.06;5077237;28;809;-44
2022/05/26 00:44:29;;;;;;;;;;;;;;;27.37;35.53;100825.94;5077376;28;837;-44
2022/05/26 00:47:15;;;;;;;;;;;;;;;27.29;35.73;100829.56;5076582;28;946;-44
2022/05/26 00:49:47;;;;;;;;;;;;;;;27.39;35.44;100824.72;5075574;28;1905;-45
2022/05/26 00:52:17;;;;;;;;;;;;;;;27.37;35.79;100821.41;5076087;28;889;-45
2022/05/26 00:54:43;;;;;;;;;;;;;;;27.34;35.51;100807.41;5077238;28;786;-44
2022/05/26 00:57:14;;;;;;;;;;;;;;;27.35;35.67;100799.13;5076917;28;737;-44
2022/05/26 00:59:59;;;;;;;;;;;;;;;27.43;35.66;100813.56;5059292;28;806;-44
2022/05/26 01:02:26;;;;;;;;;;;;;;;27.32;35.71;100822.97;5076715;28;951;-44
2022/05/26 01:04:55;;;;;;;;;;;;;;;27.38;35.63;100823.06;5058717;28;938;-44
2022/05/26 01:07:23;;;;;;;;;;;;;;;27.33;35.40;100821.91;5076812;28;754;-44
2022/05/26 01:09:48;;;;;;;;;;;;;;;27.38;35.68;100814.13;5057912;28;1953;-44
2022/05/26 01:12:13;;;;;;;;;;;;;;;27.37;35.31;100815.16;5076929;28;869;-46
2022/05/26 01:14:46;;;;;;;;;;;;;;;27.38;35.56;100822.22;5076282;28;852;-43
2022/05/26 01:17:14;;;;;;;;;;;;;;;27.29;35.73;100829.56;5057908;28;840;-44
2022/05/26 01:19:58;;;;;;;;;;;;;;;27.31;35.70;100845.59;5076459;28;918;-44
2022/05/26 01:22:42;;;;;;;;;;;;;;;27.31;35.29;100842.91;5076671;28;1318;-44
2022/05/26 01:25:30;;;;;;;;;;;;;;;27.34;35.38;100835.25;5071580;28;912;-44
2022/05/26 01:28:14;;;;;;;;;;;;;;;27.38;35.42;100838.41;5029407;28;1160;-44
2022/05/26 01:30:50;;;;;;;;;;;;;;;27.43;35.42;100836.00;5076057;28;1898;-47
2022/05/26 01:33:21;;;;;;;;;;;;;;;27.39;35.71;100838.25;5071081;28;837;-44
2022/05/26 01:36:05;;;;;;;;;;;;;;;27.29;35.55;100834.97;5057984;28;1134;-44
2022/05/26 01:38:33;;;;;;;;;;;;;;;27.24;35.87;100837.38;5075635;28;770;-44
2022/05/26 01:41:11;;;;;;;;;;;;;;;27.31;35.65;100826.69;5057742;28;935;-45
2022/05/26 01:43:56;;;;;;;;;;;;;;;27.35;35.65;100819.88;5057806;28;940;-45
2022/05/26 01:46:21;;;;;;;;;;;;;;;27.42;35.49;100806.50;5052509;28;857;-45
2022/05/26 01:48:53;;;;;;;;;;;;;;;27.45;35.50;100816.91;5075987;28;808;-45
2022/05/26 01:51:51;;;;;;;;;;;;;;;27.42;35.26;100823.53;5075899;28;1893;-45
2022/05/26 01:54:24;;;;;;;;;;;;;;;27.45;35.65;100830.44;5020083;28;1080;-44
2022/05/26 01:57:19;;;;;;;;;;;;;;;27.36;35.43;100818.88;5058444;28;925;-46
2022/05/26 01:59:51;;;;;;;;;;;;;;;27.37;35.68;100807.03;4986906;28;1083;-45
2022/05/26 02:02:22;;;;;;;;;;;;;;;27.36;35.76;100797.28;5057695;28;1144;-46
2022/05/26 02:04:49;;;;;;;;;;;;;;;27.37;35.67;100790.84;5075812;28;765;-45
2022/05/26 02:07:19;;;;;;;;;;;;;;;27.43;35.18;100776.59;5058322;28;997;-45
2022/05/26 02:09:45;;;;;;;;;;;;;;;27.42;35.51;100774.91;5056970;28;1959;-45
2022/05/26 02:12:16;;;;;;;;;;;;;;;27.43;35.09;100773.03;5056647;28;1016;-45
2022/05/26 02:14:42;;;;;;;;;;;;;;;27.43;35.23;100771.19;5076007;28;818;-45
2022/05/26 02:17:14;;;;;;;;;;;;;;;27.41;35.60;100772.41;5075429;28;998;-45
2022/05/26 02:19:43;;;;;;;;;;;;;;;27.41;35.59;100762.41;5057088;28;821;-45
2022/05/26 02:22:11;;;;;;;;;;;;;;;27.43;35.42;100771.19;5076251;28;818;-45
2022/05/26 02:24:38;;;;;;;;;;;;;;;27.43;35.58;100773.88;5075657;28;811;-45
2022/05/26 02:27:07;;;;;;;;;;;;;;;27.42;35.48;100766.81;5075827;28;1195;-45
2022/05/26 02:32:16;;;;;;;;;;;;;;;27.40;35.85;100785.06;5074152;28;906;-46
2022/05/26 02:34:41;;;;;;;;;;;;;;;27.42;35.38;100783.03;5075593;28;803;-44
2022/05/26 02:37:07;;;;;;;;;;;;;;;27.37;35.69;100777.31;5075894;28;809;-45
2022/05/26 02:39:32;;;;;;;;;;;;;;;27.45;35.70;100788.06;5057829;28;755;-46
2022/05/26 02:41:57;;;;;;;;;;;;;;;27.33;35.38;100781.41;5075584;28;928;-46
2022/05/26 02:44:23;;;;;;;;;;;;;;;27.36;35.35;100794.56;5075122;28;826;-44
2022/05/26 02:47:01;;;;;;;;;;;;;;;27.40;35.30;100790.47;5075985;28;769;-45
2022/05/26 02:49:38;;;;;;;;;;;;;;;27.39;35.42;100799.59;5069449;28;1955;-45
2022/05/26 02:52:10;;;;;;;;;;;;;;;27.41;35.37;100781.31;5056414;28;903;-44
2022/05/26 02:54:54;;;;;;;;;;;;;;;27.42;35.72;100782.19;5075832;28;744;-44
2022/05/26 02:57:28;;;;;;;;;;;;;;;27.37;35.34;100780.03;5075225;28;905;-46
2022/05/26 02:59:57;;;;;;;;;;;;;;;27.41;35.47;100781.31;5056415;28;783;-44
2022/05/26 03:02:34;;;;;;;;;;;;;;;27.36;35.83;100772.97;5056864;28;789;-43
2022/05/26 03:05:07;;;;;;;;;;;;;;;27.45;35.47;100774.53;5050515;28;874;-43
2022/05/26 03:07:33;;;;;;;;;;;;;;;27.41;35.50;100778.63;5057713;28;793;-43
2022/05/26 03:10:00;;;;;;;;;;;;;;;27.47;35.58;100782.47;5057091;28;1882;-44
2022/05/26 03:12:26;;;;;;;;;;;;;;;27.49;35.33;100783.13;5057682;28;927;-44
2022/05/26 03:14:51;;;;;;;;;;;;;;;27.50;35.42;100791.03;5077431;28;800;-44
2022/05/26 03:17:16;;;;;;;;;;;;;;;27.48;35.47;100787.69;5078920;28;864;-43
2022/05/26 03:19:42;;;;;;;;;;;;;;;27.36;35.65;100784.59;5078584;28;945;-43
2022/05/26 03:22:07;;;;;;;;;;;;;;;27.41;35.61;100784.03;5059903;28;825;-44
2022/05/26 03:24:33;;;;;;;;;;;;;;;27.43;35.31;100781.13;5078758;28;908;-42
2022/05/26 03:26:58;;;;;;;;;;;;;;;27.38;36.20;100779.84;5078394;28;1080;-42
2022/05/26 03:29:23;;;;;;;;;;;;;;;27.43;35.32;100782.00;5078760;28;1902;-43
2022/05/26 03:31:48;;;;;;;;;;;;;;;27.44;35.58;100786.38;5059892;28;829;-42
2022/05/26 03:42:26;;;;;;;;;;;;;;;26.09;40.20;100781.22;5078690;28;659;-45
2022/05/26 03:44:52;;;;;;;;;;;;;;;25.97;40.25;100784.28;5061064;28;917;-46
2022/05/26 03:47:17;;;;;;;;;;;;;;;26.03;40.15;100788.13;5059850;28;1062;-45
2022/05/26 03:49:43;;;;;;;;;;;;;;;26.09;40.31;100787.41;5078367;28;1993;-44
2022/05/26 03:52:08;;;;;;;;;;;;;;;25.91;40.44;100784.97;5078319;28;825;-46
2022/05/26 03:54:33;;;;;;;;;;;;;;;25.89;41.04;100787.84;5078381;28;915;-45
2022/05/26 03:56:59;;;;;;;;;;;;;;;25.72;41.70;100779.00;5078762;28;911;-43
2022/05/26 03:59:24;;;;;;;;;;;;;;;26.42;39.54;100781.06;5078158;28;896;-43
2022/05/26 04:01:50;;;;;;;;;;;;;;;26.58;38.97;100777.44;5078422;28;805;-42
2022/05/26 04:04:16;;;;;;;;;;;;;;;26.67;38.90;100782.75;5078757;28;743;-41
2022/05/26 04:06:41;;;;;;;;;;;;;;;26.96;38.35;100782.03;5078195;28;838;-41
2022/05/26 04:09:07;;;;;;;;;;;;;;;27.09;37.96;100783.34;5078190;28;858;-41
2022/05/26 04:11:32;;;;;;;;;;;;;;;26.93;38.68;100778.84;5077824;28;1902;-45
2022/05/26 04:13:57;;;;;;;;;;;;;;;26.89;38.77;100786.50;5077644;28;868;-42
2022/05/26 04:16:22;;;;;;;;;;;;;;;27.04;38.59;100794.69;5078697;28;858;-43
2022/05/26 04:18:48;;;;;;;;;;;;;;;26.93;38.48;100809.41;5053426;28;814;-43
2022/05/26 04:21:13;;;;;;;;;;;;;;;26.84;38.92;100834.78;5059684;28;881;-43
2022/05/26 04:23:39;;;;;;;;;;;;;;;26.93;38.20;100900.31;5078034;28;854;-43
2022/05/26 04:26:04;;;;;;;;;;;;;;;26.82;38.79;100918.63;5076314;28;1060;-44
2022/05/26 04:28:30;;;;;;;;;;;;;;;26.84;38.46;100889.56;5077312;28;1115;-45
2022/05/26 04:30:55;;;;;;;;;;;;;;;26.85;38.52;100882.31;5075935;28;1918;-45
2022/05/26 04:33:20;;;;;;;;;;;;;;;26.83;38.62;100887.06;5077940;28;829;-44
2022/05/26 04:35:46;;;;;;;;;;;;;;;26.76;38.74;100885.06;5077630;28;807;-44
2022/05/26 04:38:11;;;;;;;;;;;;;;;26.93;38.14;100911.97;5077839;28;849;-45
2022/05/26 04:40:36;;;;;;;;;;;;;;;26.98;38.42;100920.38;5077772;28;1055;-45
2022/05/26 04:43:02;;;;;;;;;;;;;;;27.06;38.42;100921.38;5077613;28;805;-44
2022/05/26 04:45:27;;;;;;;;;;;;;;;27.06;38.20;100897.09;5076858;28;835;-44
2022/05/26 04:47:53;;;;;;;;;;;;;;;27.02;38.77;100894.75;5077444;28;869;-44
2022/05/26 04:50:18;;;;;;;;;;;;;;;27.20;38.28;100895.47;5077166;28;1906;-46
2022/05/26 04:52:43;;;;;;;;;;;;;;;27.20;38.46;100880.09;5077696;28;869;-45
2022/05/26 04:55:09;;;;;;;;;;;;;;;27.18;38.87;100902.91;5077290;28;929;-44
2022/05/26 04:57:34;;;;;;;;;;;;;;;27.24;38.55;100911.13;5077754;28;1098;-44
2022/05/26 04:59:59;;;;;;;;;;;;;;;27.24;38.25;100892.22;5077360;28;863;-45
2022/05/26 05:02:25;;;;;;;;;;;;;;;27.21;38.57;100875.56;5077236;28;873;-45
2022/05/26 05:04:50;;;;;;;;;;;;;;;27.22;37.96;100877.22;5076644;28;848;-45
2022/05/26 05:07:17;;;;;;;;;;;;;;;27.14;37.82;100881.66;5077209;28;761;-44
2022/05/26 05:09:43;;;;;;;;;;;;;;;27.18;38.27;100870.50;5076649;28;1894;-45
2022/05/26 05:12:09;;;;;;;;;;;;;;;27.26;38.57;100871.28;5076960;28;845;-44
2022/05/26 05:14:40;;;;;;;;;;;;;;;27.30;38.82;100870.91;5051817;28;1067;-44
2022/05/26 05:17:05;;;;;;;;;;;;;;;27.19;39.27;100870.34;5075902;28;1029;-45
2022/05/26 05:19:30;;;;;;;;;;;;;;;27.25;39.15;100869.59;5076668;28;784;-44
2022/05/26 05:21:57;;;;;;;;;;;;;;;27.24;39.28;100859.00;5076225;28;957;-44
2022/05/26 05:24:42;;;;;;;;;;;;;;;27.22;39.17;100878.06;5058492;28;961;-44
2022/05/26 05:27:13;;;;;;;;;;;;;;;27.17;39.06;100891.28;5075461;28;1266;-44
2022/05/26 05:29:38;;;;;;;;;;;;;;;27.26;39.17;100892.88;5076137;28;1906;-45
2022/05/26 05:32:17;;;;;;;;;;;;;;;27.36;38.84;100884.53;5076457;28;1049;-45
2022/05/26 05:34:43;;;;;;;;;;;;;;;27.25;38.68;100877.72;5057962;28;835;-46
2022/05/26 05:37:09;;;;;;;;;;;;;;;27.25;39.19;100888.50;5057550;28;884;-44
2022/05/26 05:39:34;;;;;;;;;;;;;;;27.30;38.92;100879.84;5076425;28;888;-45
2022/05/26 05:42:00;;;;;;;;;;;;;;;27.37;38.98;100891.63;5058465;28;1135;-44
2022/05/26 05:44:25;;;;;;;;;;;;;;;27.40;38.64;100895.81;5058389;28;812;-45
2022/05/26 05:46:53;;;;;;;;;;;;;;;27.41;38.63;100904.78;5076181;28;822;-44
2022/05/26 05:49:19;;;;;;;;;;;;;;;27.42;38.72;100899.19;5076616;28;1965;-44
2022/05/26 05:51:44;;;;;;;;;;;;;;;27.43;38.39;100892.75;5077004;28;1209;-44
2022/05/26 05:54:10;;;;;;;;;;;;;;;27.48;38.46;100895.75;5076532;28;953;-45
2022/05/26 05:56:35;;;;;;;;;;;;;;;27.50;38.34;100880.19;5075582;28;1100;-43
2022/05/26 05:59:00;;;;;;;;;;;;;;;27.48;38.08;100881.38;5076549;28;1083;-44
2022/05/26 06:01:25;;;;;;;;;;;;;;;27.54;38.23;100887.94;5075707;28;914;-44
2022/05/26 06:03:51;;;;;;;;;;;;;;;27.53;38.78;100886.28;5076781;28;814;-44
2022/05/26 06:06:17;;;;;;;;;;;;;;;27.57;38.21;100877.63;5076395;28;941;-44
2022/05/26 06:08:42;;;;;;;;;;;;;;;27.55;38.59;100884.19;5075962;28;860;-44
2022/05/26 06:11:08;;;;;;;;;;;;;;;27.53;38.43;100884.38;5076173;28;1981;-44
2022/05/26 06:13:33;;;;;;;;;;;;;;;27.47;39.22;100877.88;5056852;28;1134;-44
2022/05/26 06:15:59;;;;;;;;;;;;;;;27.49;39.46;100867.69;5075433;28;965;-44
2022/05/26 06:18:25;;;;;;;;;;;;;;;27.54;39.41;100871.72;5075012;28;1065;-44
2022/05/26 06:20:50;;;;;;;;;;;;;;;27.60;38.94;100874.53;5057717;28;894;-44
2022/05/26 06:23:18;;;;;;;;;;;;;;;27.62;39.61;100864.41;5075934;28;981;-43
2022/05/26 06:25:44;;;;;;;;;;;;;;;27.73;39.66;100870.38;5075640;28;1223;-46
2022/05/26 06:30:53;;;;;;;;;;;;;;;27.71;38.74;100875.97;5074789;28;1906;-44
2022/05/26 06:38:46;;;;;;;;;;;;;;;27.83;37.51;100881.78;5074849;28;1032;-44
2022/05/26 06:43:57;;;;;;;;;;;;;;;27.86;38.46;100886.81;5075903;28;1041;-44
2022/05/26 06:46:23;;;;;;;;;;;;;;;28.01;38.48;100891.38;5074842;28;1084;-44
2022/05/26 06:48:48;;;;;;;;;;;;;;;28.01;38.65;100883.25;5076214;28;1298;-45
2022/05/26 06:51:14;;;;;;;;;;;;;;;28.00;38.77;100870.78;5079955;28;1973;-45
2022/05/26 06:53:39;;;;;;;;;;;;;;;28.12;38.77;100871.16;5079501;28;1001;-45
2022/05/26 06:56:05;;;;;;;;;;;;;;;27.99;38.38;100869.94;5079930;28;766;-45
2022/05/26 06:58:31;;;;;;;;;;;;;;;27.96;38.07;100870.31;5078532;28;1083;-44
2022/05/26 07:00:56;;;;;;;;;;;;;;;28.06;38.48;100875.44;5079652;28;845;-44
2022/05/26 07:03:22;;;;;;;;;;;;;;;28.07;39.08;100863.63;5078491;28;1088;-45
2022/05/26 07:05:47;;;;;;;;;;;;;;;28.04;38.78;100858.59;5079481;28;1271;-44
2022/05/26 07:08:13;;;;;;;;;;;;;;;28.10;38.78;100860.53;5079902;28;806;-45
2022/05/26 07:10:39;;;;;;;;;;;;;;;28.04;38.60;100863.16;5078649;28;1955;-48
2022/05/26 07:13:04;;;;;;;;;;;;;;;28.09;38.13;100869.66;5079604;28;758;-44
2022/05/26 07:15:30;;;;;;;;;;;;;;;28.12;38.81;100871.16;5061517;28;754;-44
2022/05/26 07:17:55;;;;;;;;;;;;;;;28.09;38.44;100858.84;5079414;28;797;-43
2022/05/26 07:20:20;;;;;;;;;;;;;;;28.19;38.04;100863.13;5079270;28;754;-44
2022/05/26 07:22:45;;;;;;;;;;;;;;;28.16;37.71;100871.63;5078988;28;924;-44
2022/05/26 07:25:11;;;;;;;;;;;;;;;28.14;38.93;100866.41;5078833;28;990;-45
2022/05/26 07:27:36;;;;;;;;;;;;;;;28.13;38.52;100872.81;5078482;28;1120;-44
2022/05/26 07:30:02;;;;;;;;;;;;;;;28.24;38.18;100874.25;5077964;28;1905;-44
2022/05/26 07:32:27;;;;;;;;;;;;;;;28.27;38.87;100865.75;5079161;28;1242;-43
2022/05/26 07:34:53;;;;;;;;;;;;;;;28.39;38.64;100868.00;5079095;28;807;-43
2022/05/26 07:42:46;;;;;;;;;;;;;;;28.16;39.50;100879.75;5078574;28;729;-43
2022/05/26 07:45:11;;;;;;;;;;;;;;;28.33;38.02;100881.25;5078021;28;861;-42
2022/05/26 07:47:36;;;;;;;;;;;;;;;28.41;38.92;100874.88;5078612;28;750;-42
2022/05/26 07:50:02;;;;;;;;;;;;;;;28.35;38.77;100887.31;5078061;28;1958;-42
2022/05/26 07:52:27;;;;;;;;;;;;;;;28.29;39.87;100887.19;5078609;28;931;-42
2022/05/26 07:54:53;;;;;;;;;;;;;;;28.35;40.31;100887.31;5059972;28;916;-42
2022/05/26 07:57:25;;;;;;;;;;;;;;;28.33;39.91;100880.41;5078674;28;715;-42
2022/05/26 07:59:51;;;;;;;;;;;;;;;28.37;39.32;100868.19;5078298;28;810;-43
2022/05/26 08:02:16;;;;;;;;;;;;;;;28.43;37.58;100867.44;5077162;28;1161;-41
2022/05/26 08:04:42;;;;;;;;;;;;;;;28.52;36.96;100880.84;5077977;28;1275;-43
2022/05/26 08:07:07;;;;;;;;;;;;;;;28.66;37.12;100879.16;5077912;28;1215;-42
2022/05/26 08:09:32;;;;;;;;;;;;;;;28.60;38.32;100880.72;5078344;28;1965;-42
2022/05/26 08:11:57;;;;;;;;;;;;;;;28.56;37.77;100876.75;5077707;28;1230;-41
2022/05/26 08:14:23;;;;;;;;;;;;;;;28.53;37.83;100886.06;5077605;28;1226;-41
2022/05/26 08:16:48;;;;;;;;;;;;;;;28.54;37.25;100873.38;5077643;28;1222;-41
2022/05/26 08:19:14;;;;;;;;;;;;;;;28.60;37.15;100881.59;5056694;28;1109;-42
2022/05/26 08:21:39;;;;;;;;;;;;;;;28.59;36.33;100877.19;5077434;28;1454;-42
2022/05/26 08:24:04;;;;;;;;;;;;;;;28.58;36.10;100880.09;5077752;28;1294;-43
2022/05/26 08:26:30;;;;;;;;;;;;;;;28.66;36.03;100887.28;5077733;28;1258;-41
2022/05/26 08:28:56;;;;;;;;;;;;;;;28.69;35.95;100879.63;5077582;28;821;-42
2022/05/26 08:31:21;;;;;;;;;;;;;;;28.66;35.80;100885.38;5077303;28;1965;-42
2022/05/26 08:33:46;;;;;;;;;;;;;;;28.68;36.04;100879.78;5077026;28;1080;-43
2022/05/26 08:36:13;;;;;;;;;;;;;;;28.72;35.13;100870.25;5077245;28;1163;-43
2022/05/26 08:38:38;;;;;;;;;;;;;;;28.72;35.15;100878.38;5077477;28;1064;-42
2022/05/26 08:41:03;;;;;;;;;;;;;;;28.67;35.78;100878.97;5077269;28;797;-42
2022/05/26 08:43:32;;;;;;;;;;;;;;;28.66;35.59;100882.66;5077754;28;734;-42
2022/05/26 08:45:57;;;;;;;;;;;;;;;28.69;35.47;100879.63;5077164;28;873;-42
2022/05/26 08:48:43;;;;;;;;;;;;;;;28.68;35.61;100877.91;5058595;28;1104;-43
2022/05/26 08:51:10;;;;;;;;;;;;;;;28.70;35.18;100877.72;5077604;28;1898;-42
2022/05/26 08:53:36;;;;;;;;;;;;;;;28.70;34.88;100875.88;5058695;28;1587;-42
2022/05/26 08:56:02;;;;;;;;;;;;;;;28.73;35.00;100880.03;5077099;28;833;-42
2022/05/26 08:58:28;;;;;;;;;;;;;;;28.69;35.37;100876.06;5077147;28;857;-42
2022/05/26 09:00:53;;;;;;;;;;;;;;;28.72;35.17;100873.81;5077709;28;793;-42
2022/05/26 09:03:23;;;;;;;;;;;;;;;28.69;34.93;100873.34;5059374;28;820;-43
2022/05/26 09:05:49;;;;;;;;;;;;;;;28.73;35.21;100875.47;5076999;28;939;-42
2022/05/26 09:13:56;;;;;;;;;;;;;;;28.79;34.49;100879.31;5061723;28;789;-42
2022/05/26 09:16:22;;;;;;;;;;;;;;;28.84;34.26;100878.72;5076633;28;770;-42
2022/05/26 09:19:05;;;;;;;;;;;;;;;28.80;34.26;100872.00;5076382;28;757;-42
2022/05/26 09:21:33;;;;;;;;;;;;;;;28.80;34.08;100872.00;5077077;28;815;-41
2022/05/26 09:24:15;;;;;;;;;;;;;;;28.80;34.28;100870.13;5076633;28;861;-43
2022/05/26 09:26:42;;;;;;;;;;;;;;;28.82;34.14;100876.22;5076545;28;1174;-42
2022/05/26 09:29:08;;;;;;;;;;;;;;;28.85;34.26;100864.16;5058810;28;846;-42
2022/05/26 09:31:35;;;;;;;;;;;;;;;28.79;34.38;100862.22;5076420;28;1969;-42
2022/05/26 09:34:03;;;;;;;;;;;;;;;28.80;34.14;100872.00;5076729;28;754;-42
2022/05/26 09:36:30;;;;;;;;;;;;;;;28.78;34.15;100869.47;5076500;28;884;-42
2022/05/26 09:38:55;;;;;;;;;;;;;;;28.75;33.76;100863.59;5076833;28;842;-42
2022/05/26 09:41:20;;;;;;;;;;;;;;;28.77;33.87;100862.41;5076913;28;742;-42
2022/05/26 09:43:50;;;;;;;;;;;;;;;28.78;34.03;100860.53;5076002;28;801;-41
2022/05/26 09:46:16;;;;;;;;;;;;;;;28.72;33.72;100852.16;5076454;28;904;-42
2022/05/26 09:48:41;;;;;;;;;;;;;;;28.75;33.77;100856.34;5059092;28;813;-42
2022/05/26 09:51:34;;;;;;;;;;;;;;;28.73;33.65;100858.38;5076925;28;1894;-42
2022/05/26 09:54:00;;;;;;;;;;;;;;;28.78;33.41;100861.38;5072413;28;1200;-42
2022/05/26 09:56:28;;;;;;;;;;;;;;;28.76;33.61;100858.00;5057833;28;1181;-42
2022/05/26 09:58:53;;;;;;;;;;;;;;;28.72;33.84;100860.28;5076254;28;782;-42
2022/05/26 10:01:26;;;;;;;;;;;;;;;28.75;33.85;100856.34;5076738;28;809;-42
2022/05/26 10:04:09;;;;;;;;;;;;;;;28.74;33.70;100849.25;5076332;28;845;-42
2022/05/26 10:06:36;;;;;;;;;;;;;;;28.76;33.58;100858.00;5070554;28;826;-42
2022/05/26 10:09:14;;;;;;;;;;;;;;;28.72;34.11;100854.88;5057629;28;813;-41
2022/05/26 10:11:58;;;;;;;;;;;;;;;28.73;33.60;100856.53;5058074;28;1898;-42
2022/05/26 10:14:42;;;;;;;;;;;;;;;28.75;33.86;100852.78;5076737;28;742;-42
2022/05/26 10:17:23;;;;;;;;;;;;;;;28.81;34.39;100855.56;5075380;28;1119;-43
2022/05/26 10:19:48;;;;;;;;;;;;;;;28.84;33.70;100846.22;5057693;28;1184;-42
2022/05/26 10:22:14;;;;;;;;;;;;;;;28.88;33.70;100849.41;5075586;28;1318;-43
2022/05/26 10:24:42;;;;;;;;;;;;;;;28.92;33.75;100854.22;5077218;28;1246;-42
2022/05/26 10:27:10;;;;;;;;;;;;;;;28.93;33.79;100852.34;5079976;28;1259;-42
2022/05/26 10:29:45;;;;;;;;;;;;;;;28.92;33.58;100848.81;5079870;28;1918;-42
2022/05/26 10:32:29;;;;;;;;;;;;;;;28.92;33.79;100842.56;5061387;28;1262;-42
2022/05/26 10:35:00;;;;;;;;;;;;;;;28.98;33.39;100844.50;5079500;28;1200;-42
2022/05/26 10:37:32;;;;;;;;;;;;;;;28.99;33.60;100840.78;5079432;28;1255;-42
2022/05/26 10:39:57;;;;;;;;;;;;;;;29.02;33.55;100847.69;5079770;28;1274;-42
2022/05/26 10:42:25;;;;;;;;;;;;;;;29.00;33.65;100839.75;5079763;28;1298;-43
2022/05/26 10:45:09;;;;;;;;;;;;;;;29.04;33.65;100840.19;5079612;28;957;-42
2022/05/26 10:47:36;;;;;;;;;;;;;;;29.00;33.41;100838.91;5076126;28;1184;-43
2022/05/26 10:50:17;;;;;;;;;;;;;;;29.05;33.63;100836.44;5056088;28;1898;-42
2022/05/26 10:52:52;;;;;;;;;;;;;;;29.02;33.76;100837.69;5059252;28;1262;-42
2022/05/26 10:55:21;;;;;;;;;;;;;;;29.01;33.76;100840.59;5078951;28;1329;-44
2022/05/26 10:57:49;;;;;;;;;;;;;;;29.01;33.73;100836.00;5079508;28;987;-42
2022/05/26 11:00:15;;;;;;;;;;;;;;;29.03;33.32;100836.66;5079129;28;892;-43
2022/05/26 11:02:40;;;;;;;;;;;;;;;29.08;33.56;100838.75;5061377;28;829;-42
2022/05/26 11:05:08;;;;;;;;;;;;;;;29.10;33.78;100831.28;5079729;28;913;-43
2022/05/26 11:07:34;;;;;;;;;;;;;;;29.09;33.90;100838.56;5079461;28;819;-42
2022/05/26 11:10:03;;;;;;;;;;;;;;;29.09;33.88;100838.56;5079781;28;1969;-42
2022/05/26 11:12:48;;;;;;;;;;;;;;;29.07;34.06;100832.53;5078914;28;897;-42
2022/05/26 11:18:07;;;;;;;;;;;;;;;29.07;33.98;100837.94;5063725;28;627;-42
2022/05/26 11:21:01;;;;;;;;;;;;;;;29.09;34.21;100838.56;5078906;28;752;-42
2022/05/26 11:23:27;;;;;;;;;;;;;;;29.12;34.05;100836.50;5057434;28;1371;-42
2022/05/26 11:25:53;;;;;;;;;;;;;;;29.12;33.97;100836.50;5059719;28;1184;-42
2022/05/26 11:28:47;;;;;;;;;;;;;;;29.16;34.13;100835.91;5079184;28;770;-42
2022/05/26 11:36:53;;;;;;;;;;;;;;;29.04;34.24;100838.34;5073091;28;750;-43
2022/05/26 11:39:25;;;;;;;;;;;;;;;28.99;34.51;100829.09;5078137;28;927;-43
2022/05/26 11:41:52;;;;;;;;;;;;;;;29.02;34.35;100832.28;5079100;28;722;-42
2022/05/26 11:44:36;;;;;;;;;;;;;;;29.02;34.36;100839.56;5078747;28;801;-42
2022/05/26 11:47:20;;;;;;;;;;;;;;;28.93;34.38;100836.09;5077843;28;1716;-42
2022/05/26 11:49:49;;;;;;;;;;;;;;;28.94;34.55;100826.97;5074987;28;1894;-43
2022/05/26 11:52:46;;;;;;;;;;;;;;;28.94;34.61;100833.22;5076649;28;1583;-43
2022/05/26 11:55:16;;;;;;;;;;;;;;;28.96;34.86;100843.84;5078427;28;1633;-43
2022/05/26 11:57:41;;;;;;;;;;;;;;;29.01;34.55;100832.47;5078686;28;749;-43
2022/05/26 12:00:16;;;;;;;;;;;;;;;29.04;34.48;100832.06;5078236;28;876;-43
2022/05/26 12:02:45;;;;;;;;;;;;;;;29.04;34.19;100830.22;5078403;28;757;-42
2022/05/26 12:05:28;;;;;;;;;;;;;;;29.11;33.62;100824.88;5078088;28;841;-43
2022/05/26 12:07:53;;;;;;;;;;;;;;;29.05;33.12;100826.47;5078409;28;850;-42
2022/05/26 12:10:23;;;;;;;;;;;;;;;29.02;33.73;100826.00;5060627;28;1961;-43
2022/05/26 12:12:49;;;;;;;;;;;;;;;29.00;33.79;100822.66;5060274;28;983;-43
2022/05/26 12:15:23;;;;;;;;;;;;;;;28.98;34.24;100816.63;5060178;28;847;-43
2022/05/26 12:17:49;;;;;;;;;;;;;;;28.98;34.18;100816.63;5077843;28;826;-42
2022/05/26 12:20:14;;;;;;;;;;;;;;;28.95;34.38;100810.50;5060311;28;801;-43
2022/05/26 12:22:41;;;;;;;;;;;;;;;28.95;34.57;100815.94;5077887;28;854;-42
2022/05/26 12:25:17;;;;;;;;;;;;;;;28.98;34.14;100803.06;5077904;28;769;-42
2022/05/26 12:27:53;;;;;;;;;;;;;;;28.99;34.18;100808.28;5078235;28;1098;-43
2022/05/26 12:30:37;;;;;;;;;;;;;;;28.96;34.43;100806.75;5072872;28;1959;-43
2022/05/26 12:33:21;;;;;;;;;;;;;;;28.93;34.26;100804.44;5077953;28;729;-42
2022/05/26 12:36:04;;;;;;;;;;;;;;;28.98;34.58;100809.31;5076466;28;1192;-42
2022/05/26 12:38:45;;;;;;;;;;;;;;;28.99;34.41;100807.44;5077603;28;1490;-41
2022/05/26 12:41:22;;;;;;;;;;;;;;;29.00;34.43;100811.81;5073889;28;1187;-41
2022/05/26 12:44:06;;;;;;;;;;;;;;;29.02;34.41;100804.34;5076716;28;1562;-41
2022/05/26 12:46:35;;;;;;;;;;;;;;;29.03;34.55;100809.56;5076820;28;1302;-42
2022/05/26 12:49:04;;;;;;;;;;;;;;;29.18;33.78;100801.34;5077229;28;1127;-45
2022/05/26 12:51:33;;;;;;;;;;;;;;;29.18;34.13;100804.06;5077220;28;1948;-42
2022/05/26 12:53:58;;;;;;;;;;;;;;;29.17;34.25;100802.41;5076640;28;1131;-42
2022/05/26 12:56:24;;;;;;;;;;;;;;;29.10;34.43;100796.09;5077263;28;1289;-42
2022/05/26 12:58:57;;;;;;;;;;;;;;;29.14;34.26;100802.81;5059358;28;1112;-42
2022/05/26 13:01:23;;;;;;;;;;;;;;;29.16;34.12;100794.47;5077295;28;1155;-42
2022/05/26 13:03:51;;;;;;;;;;;;;;;29.19;33.95;100794.94;5077329;28;1155;-42
2022/05/26 13:06:22;;;;;;;;;;;;;;;29.17;34.06;100799.69;5059218;28;1068;-42
2022/05/26 13:08:48;;;;;;;;;;;;;;;29.17;34.16;100791.56;5076577;28;919;-42
2022/05/26 13:11:15;;;;;;;;;;;;;;;29.18;33.82;100795.94;5058941;28;1942;-41
2022/05/26 13:13:41;;;;;;;;;;;;;;;29.18;34.19;100801.34;5076554;28;1143;-41
2022/05/26 13:16:25;;;;;;;;;;;;;;;29.17;34.30;100806.97;5057907;28;1041;-41
2022/05/26 13:18:51;;;;;;;;;;;;;;;29.04;34.25;100807.69;5071469;28;1095;-43
2022/05/26 13:21:21;;;;;;;;;;;;;;;29.25;33.94;100812.25;5076529;28;922;-43
2022/05/26 13:23:48;;;;;;;;;;;;;;;29.18;33.78;100809.47;5076822;28;1242;-44
2022/05/26 13:26:13;;;;;;;;;;;;;;;29.14;34.36;100801.94;5076351;28;1238;-45
2022/05/26 13:28:39;;;;;;;;;;;;;;;29.13;34.21;100798.41;5076615;28;1259;-44
2022/05/26 13:33:57;;;;;;;;;;;;;;;29.15;34.27;100796.34;5076022;28;1164;-44
2022/05/26 13:36:36;;;;;;;;;;;;;;;29.11;34.03;100795.06;5076995;28;848;-44
2022/05/26 13:39:14;;;;;;;;;;;;;;;29.03;34.25;100804.16;5076475;28;926;-44
2022/05/26 13:41:40;;;;;;;;;;;;;;;29.00;34.18;100800.97;5076711;28;821;-44
2022/05/26 13:44:06;;;;;;;;;;;;;;;28.99;34.68;100799.31;5058968;28;850;-43
2022/05/26 13:46:39;;;;;;;;;;;;;;;28.96;34.15;100798.63;5076247;28;791;-44